map of WJF home
WJF - Airport
Location
City:  Lancaster, California, United States
Name:General William J Fox Airfield
ICAO:KWJF
IATA:WJF
FAA LID:WJF

Details
Type:Airport (Airfield)
Use:Public/Civil
Latitude:34°44'28"N (34.741056)
Longitude:118°13'07"W (-118.218638)
Datum:WGS 1984
Elevation:2350 ft (716 m)
Variation:12.12°E (WMM2015 magnetic declination)
-0.09° annual change
Runways:1
Longest:7201 × 150 ft (2195 × 45.5 m), paved

Time
Time Zone:UTC-8 (DST-7)
Local Time:

Weather
METAR:KWJF 150556Z AUTO 27003KT 10SM CLR 04/M13 A3027 RMK AO2 SLP256 T00391133 10200 20022 51015
TAF:KWJF 150531Z 1506/1606 VRB05KT P6SM SKC
FM160100 26008KT P6SM SKC

Related Locations
Nearby:
Farthest:ZSE: 11430 mi / 18396 km
St-Pierre (St-Pierre de la Réunion) [Pierrefonds], RE

Find:

   beyond  
but within

Other Information
Maps:
NOTAMs:
Links:
Sources:

  
flag of United States
flag of California
  

Airport Diagram

Airport diagram for WJF

Airport diagram PDF

Sectional Chart

Flight Planning
at skyvector.com

Satellite Image

Google Maps Satellite view

 

Copyright © 2004-2017 Karl L. Swartz. All rights reserved.
The Great Circle Mapper name and logo are trademarks of the Great Circle Mapper.
All other trademarks mentioned herein belong to their respective owners.
Please see credits for attibutions and further copyright information.

  Follow gcmap on Facebook Follow gcmap on Twitter Follow gcmap on Google+ GCmap on LinkedIn

hCard Microformat

Geo Microformat